Time;durP1;ratioP1;P1;durP2;ratioP2;P2;SDS_P1;SDS_P2;PMS_P1;PMS_P2;Temp;Humidity;BMP_temperature;BMP_pressure;BME280_temperature;BME280_humidity;BME280_pressure;Samples;Min_cycle;Max_cycle;Signal;HPM_P1;HPM_P2
2022/08/19 00:00:10;;;;;;;14.43;11.50;;;21.40;71.60;;;24.15;48.54;97210.81;5007224;28;20042;-42
2022/08/19 00:02:37;;;;;;;14.70;12.02;;;21.30;71.70;;;24.13;48.42;97215.69;5006396;28;20050;-42
2022/08/19 00:05:19;;;;;;;14.60;11.23;;;21.40;71.50;;;24.17;48.31;97207.84;5006808;28;20045;-43
2022/08/19 00:07:48;;;;;;;14.23;12.00;;;21.40;71.50;;;24.07;48.57;97203.13;5007401;28;20053;-46
2022/08/19 00:10:18;;;;;;;16.17;12.32;;;21.30;71.60;;;24.13;48.40;97204.00;5007624;28;20058;-47
2022/08/19 00:12:46;;;;;;;15.63;13.20;;;21.40;71.50;;;24.09;48.43;97217.28;5007764;28;20064;-44
2022/08/19 00:15:18;;;;;;;14.68;12.27;;;21.30;71.60;;;24.05;48.64;97204.47;5006542;28;20085;-42
2022/08/19 00:17:47;;;;;;;16.30;13.23;;;21.30;72.00;;;24.03;48.71;97212.06;5007130;28;20072;-44
2022/08/19 00:20:19;;;;;;;15.90;12.90;;;21.20;71.80;;;24.05;48.68;97207.19;5006103;28;20378;-41
2022/08/19 00:22:48;;;;;;;15.18;13.25;;;21.30;71.80;;;24.00;48.63;97205.25;5008389;28;20053;-42
2022/08/19 00:25:16;;;;;;;16.52;13.00;;;21.20;72.10;;;24.00;48.68;97218.00;5011347;28;20260;-43
2022/08/19 00:27:44;;;;;;;17.60;13.23;;;21.20;72.10;;;23.96;48.70;97206.81;5011833;28;20057;-43
2022/08/19 00:30:12;;;;;;;15.38;12.98;;;21.20;71.80;;;23.94;48.91;97209.84;5010903;28;20053;-45
2022/08/19 00:32:40;;;;;;;17.92;12.98;;;21.20;71.90;;;23.96;49.11;97209.56;5011776;28;20058;-45
2022/08/19 00:35:09;;;;;;;17.30;12.48;;;21.20;72.00;;;23.94;48.94;97207.13;5010156;28;20064;-45
2022/08/19 00:37:42;;;;;;;17.10;12.80;;;21.20;72.00;;;23.97;48.77;97200.31;5010409;28;20046;-44
2022/08/19 00:40:12;;;;;;;18.08;13.90;;;21.20;72.00;;;23.91;49.07;97188.59;5010318;28;20071;-45
2022/08/19 00:42:41;;;;;;;15.32;13.00;;;21.20;72.30;;;23.91;48.93;97190.50;5010356;28;20053;-45
2022/08/19 00:45:20;;;;;;;17.83;13.20;;;21.20;72.20;;;23.91;49.07;97177.72;5009325;28;20081;-43
2022/08/19 00:47:48;;;;;;;18.85;13.98;;;21.20;72.40;;;23.88;49.09;97171.97;5009658;28;20060;-44
2022/08/19 00:50:19;;;;;;;17.33;14.30;;;21.10;72.50;;;23.96;48.99;97166.91;5010406;28;20060;-43
2022/08/19 00:52:50;;;;;;;16.60;13.18;;;21.20;72.20;;;23.99;48.66;97173.69;5009645;28;20048;-43
2022/08/19 00:55:24;;;;;;;14.88;12.30;;;21.20;72.10;;;23.96;48.74;97174.22;5010350;28;20057;-43
2022/08/19 00:58:01;;;;;;;21.08;14.82;;;21.20;72.10;;;23.85;49.23;97175.22;5009699;28;20041;-45
2022/08/19 01:00:31;;;;;;;17.15;15.15;;;21.10;72.60;;;23.77;49.43;97174.56;5010366;28;20050;-47
2022/08/19 01:02:59;;;;;;;19.13;13.55;;;21.10;73.00;;;23.77;49.53;97179.19;5010043;28;20255;-42
2022/08/19 01:05:28;;;;;;;18.05;14.60;;;21.10;73.20;;;23.76;49.51;97182.97;5010126;28;20049;-44
2022/08/19 01:08:00;;;;;;;17.63;13.98;;;21.10;73.30;;;23.83;49.71;97190.97;5009049;28;20048;-43
2022/08/19 01:10:32;;;;;;;16.50;14.13;;;21.10;73.20;;;23.91;49.29;97190.50;5009102;28;20360;-43
2022/08/19 01:13:04;;;;;;;17.10;15.07;;;21.20;73.00;;;23.97;49.33;97197.63;5009112;28;20056;-42
2022/08/19 01:15:41;;;;;;;16.17;13.35;;;21.20;72.80;;;23.97;49.28;97198.41;5009633;28;20045;-44
2022/08/19 01:18:13;;;;;;;16.77;14.25;;;21.20;72.80;;;23.95;49.10;97194.34;5008396;28;20052;-45
2022/08/19 01:20:42;;;;;;;19.67;15.18;;;21.20;73.00;;;23.96;49.22;97195.94;5009766;28;20050;-44
2022/08/19 01:23:11;;;;;;;18.02;15.32;;;21.20;73.10;;;23.92;49.34;97192.13;5009262;28;20057;-42
2022/08/19 01:25:49;;;;;;;19.20;14.45;;;21.10;73.20;;;23.91;49.43;97188.59;5009477;28;20050;-42
2022/08/19 01:28:26;;;;;;;18.50;15.27;;;21.10;73.50;;;23.91;49.51;97185.88;5009540;28;20080;-43
2022/08/19 01:31:12;;;;;;;16.83;14.13;;;21.10;73.80;;;23.90;49.44;97181.50;5008760;28;20063;-44
2022/08/19 01:33:57;;;;;;;19.25;15.73;;;21.10;74.00;;;23.90;49.42;97183.41;5008036;28;20062;-43
2022/08/19 01:36:33;;;;;;;19.63;15.20;;;21.10;74.10;;;23.84;49.56;97190.69;5010012;28;20352;-45
2022/08/19 01:39:07;;;;;;;18.75;15.00;;;21.10;74.30;;;23.76;49.86;97188.41;5007774;28;20054;-42
2022/08/19 01:41:35;;;;;;;20.42;15.48;;;21.00;74.40;;;23.76;49.97;97186.50;5008761;28;20264;-47
2022/08/19 01:44:06;;;;;;;20.70;16.10;;;21.00;74.40;;;23.79;49.99;97179.78;5009561;28;20065;-42
2022/08/19 01:46:48;;;;;;;22.30;15.93;;;21.00;74.30;;;23.82;49.91;97184.69;5009462;28;20248;-43
2022/08/19 01:49:19;;;;;;;19.20;14.88;;;21.10;74.50;;;23.81;50.06;97188.50;5009708;28;20251;-47
2022/08/19 01:51:49;;;;;;;20.70;16.10;;;21.00;74.50;;;23.78;49.92;97187.09;5007940;28;20398;-45
2022/08/19 01:54:19;;;;;;;18.85;15.50;;;21.00;74.80;;;23.61;50.17;97185.53;5007616;28;20062;-45
2022/08/19 01:57:06;;;;;;;18.85;15.50;;;20.90;75.40;;;23.71;50.30;97180.19;5008444;28;20060;-46
2022/08/19 01:59:36;;;;;;;25.60;17.52;;;20.90;75.50;;;23.69;50.20;97177.75;5007792;28;20066;-46
2022/08/19 02:02:08;;;;;;;21.25;17.38;;;20.90;75.30;;;23.75;50.09;97178.63;5008691;28;20049;-45
2022/08/19 02:04:37;;;;;;;21.45;15.77;;;21.00;74.90;;;23.71;50.04;97177.47;5009944;28;20045;-44
2022/08/19 02:07:07;;;;;;;21.95;16.35;;;20.90;75.10;;;23.63;50.28;97192.34;5009519;28;20049;-43
2022/08/19 02:09:36;;;;;;;21.52;15.88;;;20.90;75.60;;;23.56;50.50;97189.84;5007883;28;20060;-44
2022/08/19 02:12:07;;;;;;;20.73;16.17;;;20.80;75.70;;;23.51;50.50;97197.94;5007687;28;20056;-43
2022/08/19 02:14:36;;;;;;;20.42;17.20;;;20.80;76.00;;;23.58;50.63;97203.19;5007976;28;20356;-44
2022/08/19 02:17:04;;;;;;;20.27;17.35;;;20.80;76.00;;;23.46;50.61;97205.19;5007085;28;20064;-41
2022/08/19 02:19:32;;;;;;;24.17;17.38;;;20.70;76.50;;;23.40;50.80;97196.19;5008234;28;20255;-44
2022/08/19 02:22:00;;;;;;;22.25;17.45;;;20.70;76.70;;;23.41;50.92;97188.88;5008782;28;20060;-43
2022/08/19 02:24:28;;;;;;;22.17;17.15;;;20.70;76.60;;;23.47;51.00;97190.56;5008935;28;20050;-42
2022/08/19 02:26:57;;;;;;;21.55;18.58;;;20.70;76.50;;;23.38;50.99;97182.06;5008263;28;20067;-43
2022/08/19 02:29:24;;;;;;;22.98;18.15;;;20.70;76.80;;;23.35;51.22;97183.38;5008667;28;20050;-44
2022/08/19 02:31:52;;;;;;;24.27;20.27;;;20.70;76.70;;;23.27;51.47;97194.69;5007632;28;20264;-45
2022/08/19 02:34:20;;;;;;;22.85;17.77;;;20.60;76.80;;;23.30;51.21;97180.63;5008884;28;20248;-42
2022/08/19 02:36:48;;;;;;;22.35;17.90;;;20.60;77.10;;;23.27;51.36;97183.00;5008133;28;20068;-42
2022/08/19 02:39:19;;;;;;;25.50;18.08;;;20.60;77.30;;;23.20;51.69;97183.19;5007960;28;20081;-44
2022/08/19 02:41:47;;;;;;;23.10;18.30;;;20.50;77.80;;;23.28;51.17;97177.31;5008171;28;20042;-44
2022/08/19 02:44:15;;;;;;;21.77;17.35;;;20.60;77.50;;;23.31;51.21;97178.72;5008202;28;20068;-45
2022/08/19 02:46:59;;;;;;;20.92;17.58;;;20.60;77.30;;;23.29;51.10;97172.72;5006618;28;20060;-43
2022/08/19 02:49:26;;;;;;;24.23;18.67;;;20.60;77.60;;;23.21;51.37;97182.13;5007653;28;20363;-44
2022/08/19 02:51:54;;;;;;;23.13;17.98;;;20.50;77.80;;;23.18;51.49;97179.91;5007814;28;20247;-44
2022/08/19 02:54:22;;;;;;;22.55;19.05;;;20.50;78.10;;;23.14;51.58;97187.75;5008270;28;20064;-45
2022/08/19 02:56:50;;;;;;;20.95;17.98;;;20.50;78.30;;;23.12;51.92;97183.66;5007113;28;20279;-42
2022/08/19 02:59:18;;;;;;;22.55;19.10;;;20.40;78.50;;;22.98;51.83;97180.47;5008651;28;20062;-44
2022/08/19 03:01:49;;;;;;;21.25;17.27;;;20.40;78.70;;;22.97;52.38;97186.94;5007486;28;20056;-43
2022/08/19 03:04:19;;;;;;;24.45;19.35;;;20.40;78.70;;;23.02;51.80;97178.88;5008435;28;20053;-44
2022/08/19 03:06:48;;;;;;;22.15;18.65;;;20.30;78.70;;;23.00;52.11;97181.84;5007406;28;20054;-44
2022/08/19 03:09:19;;;;;;;26.98;18.88;;;20.30;79.00;;;23.06;51.90;97180.03;5007307;28;20064;-44
2022/08/19 03:11:47;;;;;;;23.08;18.50;;;20.30;79.00;;;23.13;51.77;97183.41;5005998;28;20046;-46
2022/08/19 03:14:19;;;;;;;20.92;17.63;;;20.40;78.90;;;23.10;51.85;97193.94;5007649;28;20061;-45
2022/08/19 03:16:52;;;;;;;24.60;19.20;;;20.40;78.80;;;22.99;52.08;97196.50;5008203;28;20045;-45
2022/08/19 03:19:21;;;;;;;24.70;19.35;;;20.40;78.80;;;22.99;52.25;97196.50;5006603;28;20050;-43
2022/08/19 03:21:50;;;;;;;24.60;19.50;;;20.30;79.20;;;22.97;51.97;97187.78;5006707;28;20049;-45
2022/08/19 03:24:19;;;;;;;23.95;19.63;;;20.30;79.20;;;23.02;51.79;97194.34;5006818;28;20054;-43
2022/08/19 03:26:52;;;;;;;26.35;19.90;;;20.30;79.20;;;23.00;51.77;97194.59;5007762;28;20054;-43
2022/08/19 03:29:20;;;;;;;23.13;20.35;;;20.30;79.00;;;23.02;51.84;97202.50;5007777;28;20253;-43
2022/08/19 03:32:00;;;;;;;25.55;20.00;;;20.30;78.90;;;23.02;51.71;97195.16;5005973;28;20057;-43
2022/08/19 03:34:34;;;;;;;23.60;20.42;;;20.30;79.00;;;23.13;51.39;97207.03;5007106;28;20053;-43
2022/08/19 03:37:09;;;;;;;24.80;20.05;;;20.40;78.50;;;23.13;51.39;97205.13;5007733;28;20050;-45
2022/08/19 03:39:39;;;;;;;26.77;21.67;;;20.40;78.50;;;23.09;51.46;97201.28;5007460;28;20064;-43
2022/08/19 03:42:07;;;;;;;25.63;20.75;;;20.40;78.50;;;23.02;51.84;97192.44;5007139;28;20056;-44
2022/08/19 03:44:55;;;;;;;25.33;21.40;;;20.30;78.70;;;23.02;51.58;97188.94;5005610;28;20053;-43
2022/08/19 03:47:23;;;;;;;27.65;19.70;;;20.30;79.20;;;22.97;51.72;97193.22;5006160;28;20057;-44
2022/08/19 03:49:51;;;;;;;25.15;20.40;;;20.20;79.10;;;22.87;52.11;97194.97;5006386;28;20042;-43
2022/08/19 03:52:19;;;;;;;26.77;20.63;;;20.30;79.30;;;22.88;51.97;97186.59;5006762;28;20054;-47
2022/08/19 03:54:47;;;;;;;25.38;20.17;;;20.20;79.40;;;22.82;52.16;97193.03;5006304;28;20083;-45
2022/08/19 03:57:14;;;;;;;23.92;20.38;;;20.20;79.70;;;22.86;52.30;97196.06;5006711;28;20058;-44
2022/08/19 03:59:43;;;;;;;26.45;21.17;;;20.20;79.70;;;22.87;52.30;97198.50;5007058;28;20215;-46
2022/08/19 04:02:12;;;;;;;25.25;19.95;;;20.20;79.90;;;22.88;52.34;97202.88;5007024;28;20041;-43
2022/08/19 04:04:42;;;;;;;28.50;22.30;;;20.20;79.80;;;22.91;52.27;97207.78;5007181;28;20046;-49
2022/08/19 04:07:15;;;;;;;27.45;20.58;;;20.30;79.60;;;22.87;52.13;97213.97;5007028;28;20050;-44
2022/08/19 04:09:43;;;;;;;27.58;20.05;;;20.20;79.90;;;22.91;52.11;97210.47;5007206;28;20060;-43
2022/08/19 04:12:11;;;;;;;22.17;18.73;;;20.20;80.00;;;22.78;52.28;97217.13;5006444;28;20049;-44
2022/08/19 04:14:39;;;;;;;25.48;21.40;;;20.10;80.50;;;22.82;52.39;97217.44;5007390;28;20444;-46
2022/08/19 04:17:07;;;;;;;27.77;20.08;;;20.10;80.60;;;22.86;52.22;97217.75;5006933;28;20046;-45
2022/08/19 04:19:36;;;;;;;24.92;19.83;;;20.10;80.50;;;22.83;52.31;97212.81;5006731;28;20042;-45
2022/08/19 04:22:04;;;;;;;28.02;20.98;;;20.20;80.70;;;22.81;52.42;97211.16;5006154;28;20060;-43
2022/08/19 04:24:35;;;;;;;24.23;19.80;;;20.10;80.80;;;22.85;52.54;97207.97;5006909;28;20045;-44
2022/08/19 04:27:05;;;;;;;26.10;21.40;;;20.10;80.80;;;22.84;52.54;97209.88;5006668;28;20046;-48
2022/08/19 04:29:33;;;;;;;24.65;20.75;;;20.10;80.80;;;22.85;52.52;97211.50;5006806;28;20048;-43
2022/08/19 04:32:02;;;;;;;24.50;21.10;;;20.10;81.30;;;22.89;52.25;97206.38;5004693;28;20263;-43
2022/08/19 04:34:37;;;;;;;26.60;20.88;;;20.10;81.30;;;22.80;52.82;97200.59;5007336;28;20049;-45
2022/08/19 04:37:27;;;;;;;23.88;19.45;;;20.10;81.50;;;22.84;52.77;97201.72;5006089;28;20096;-45
2022/08/19 04:42:53;;;;;;;25.63;20.85;;;20.10;81.50;;;22.81;52.71;97194.88;5006479;28;20042;-44
2022/08/19 04:45:21;;;;;;;24.75;19.77;;;20.10;81.80;;;22.80;52.82;97198.69;5006732;28;20827;-43
2022/08/19 04:47:55;;;;;;;28.77;22.70;;;20.10;82.00;;;22.70;53.29;97197.72;5005994;28;20048;-44
2022/08/19 04:50:44;;;;;;;26.40;22.20;;;20.00;82.60;;;22.74;52.75;97204.28;5006190;28;20743;-43
2022/08/19 04:53:12;;;;;;;30.85;22.92;;;20.00;82.90;;;22.73;53.38;97208.06;5005705;28;20046;-48
2022/08/19 04:55:42;;;;;;;29.60;22.77;;;20.00;83.00;;;22.58;53.56;97206.78;5006647;28;20378;-46
2022/08/19 04:58:10;;;;;;;24.05;21.20;;;20.00;83.60;;;22.63;53.71;97214.19;5006013;28;20058;-44
2022/08/19 05:00:39;;;;;;;24.95;20.77;;;20.00;83.80;;;22.63;53.83;97211.47;5005991;28;20057;-44
2022/08/19 05:03:08;;;;;;;29.08;20.30;;;20.00;84.10;;;22.66;53.78;97216.38;5005814;28;20271;-46
2022/08/19 05:05:41;;;;;;;26.15;21.25;;;20.00;84.10;;;22.79;53.19;97218.75;5006016;28;20058;-45
2022/08/19 05:08:18;;;;;;;26.23;20.90;;;20.10;84.00;;;22.74;53.53;97221.41;5005980;28;20072;-46
2022/08/19 05:10:58;;;;;;;29.90;21.30;;;20.10;84.10;;;22.69;53.44;97226.75;5008838;28;20054;-43
2022/08/19 05:13:26;;;;;;;24.75;21.27;;;20.00;84.40;;;22.64;53.77;97229.38;5010866;28;20056;-46
2022/08/19 05:15:57;;;;;;;25.23;20.88;;;20.00;84.60;;;22.65;53.60;97231.03;5009316;28;20041;-46
2022/08/19 05:24:09;;;;;;;23.95;19.17;;;20.00;85.60;;;22.63;54.22;97235.88;5010687;28;20248;-45
2022/08/19 05:26:39;;;;;;;24.67;20.55;;;20.00;85.90;;;22.76;53.70;97238.25;4991782;28;20050;-44
2022/08/19 05:29:08;;;;;;;25.00;19.80;;;20.00;85.50;;;22.79;53.85;97251.31;5010261;28;20046;-44
2022/08/19 05:31:41;;;;;;;25.10;20.50;;;20.10;85.10;;;22.74;53.59;97262.09;5008613;28;20391;-46
2022/08/19 05:34:09;;;;;;;26.98;21.15;;;20.10;84.80;;;22.74;53.56;97259.38;5010924;28;20060;-49
2022/08/19 05:36:48;;;;;;;28.13;21.00;;;20.10;84.80;;;22.67;54.08;97277.72;5009271;28;20050;-43
2022/08/19 05:39:20;;;;;;;26.80;21.05;;;20.10;85.00;;;22.69;53.81;97283.72;5008183;28;20064;-47
2022/08/19 05:41:56;;;;;;;24.20;21.15;;;20.10;85.20;;;22.80;53.80;97292.84;5007957;28;20364;-44
2022/08/19 05:44:31;;;;;;;26.13;20.17;;;20.10;85.10;;;22.81;53.45;97294.47;5008749;28;20363;-44
2022/08/19 05:47:02;;;;;;;25.13;20.33;;;20.10;84.70;;;22.84;53.74;97309.44;5008916;28;20052;-43
2022/08/19 05:49:32;;;;;;;26.35;19.70;;;20.10;84.60;;;22.62;54.16;97302.03;5008961;28;20054;-44
2022/08/19 05:52:11;;;;;;;26.80;20.88;;;20.10;85.30;;;22.82;53.96;97301.56;5007275;28;20042;-45
2022/08/19 05:54:41;;;;;;;21.70;19.45;;;20.10;85.10;;;22.83;53.47;97302.38;5007698;28;20045;-43
2022/08/19 05:57:10;;;;;;;26.98;20.45;;;20.10;84.80;;;22.67;54.32;97291.28;5008597;28;20056;-46
2022/08/19 05:59:40;;;;;;;30.30;22.75;;;20.10;85.10;;;22.63;53.99;97294.75;5010033;28;20053;-44
2022/08/19 06:02:08;;;;;;;23.67;19.02;;;20.10;85.30;;;22.79;54.05;97297.44;5007504;28;20061;-44
2022/08/19 06:04:37;;;;;;;24.52;20.83;;;20.20;85.30;;;22.76;54.23;97294.38;5007962;28;20045;-49
2022/08/19 06:07:05;;;;;;;24.52;21.63;;;20.10;85.30;;;22.64;54.24;97293.66;5008909;28;20060;-43
2022/08/19 06:09:40;;;;;;;25.92;21.75;;;20.10;85.60;;;22.73;54.23;97301.16;5008303;28;20687;-44
2022/08/19 06:12:31;;;;;;;25.63;20.70;;;20.10;85.50;;;22.79;53.63;97292.00;5008534;28;20237;-47
2022/08/19 06:15:01;;;;;;;25.00;20.92;;;20.20;85.50;;;22.72;54.15;97299.50;5008201;28;20225;-44
2022/08/19 06:17:29;;;;;;;27.20;21.40;;;20.10;86.30;;;22.72;54.13;97294.09;5008140;28;20056;-44
2022/08/19 06:20:15;;;;;;;25.42;21.05;;;20.10;85.40;;;22.73;54.15;97300.31;5007587;28;20046;-45
2022/08/19 06:22:48;;;;;;;22.15;18.08;;;20.20;85.20;;;22.83;53.65;97299.66;5007474;28;20057;-48
2022/08/19 06:25:17;;;;;;;28.17;20.50;;;20.20;84.90;;;22.84;53.78;97291.28;5008395;28;20286;-42
2022/08/19 06:27:45;;;;;;;24.13;20.75;;;20.10;84.70;;;22.89;53.33;97290.53;5007997;28;20072;-47
2022/08/19 06:30:33;;;;;;;25.33;19.50;;;20.20;84.50;;;22.74;53.86;97294.66;5007561;28;20340;-44
2022/08/19 06:33:01;;;;;;;23.83;20.92;;;20.10;84.80;;;22.63;54.11;97286.63;5008152;28;20048;-45
2022/08/19 06:35:29;;;;;;;23.33;19.13;;;20.10;85.20;;;22.71;54.16;97297.84;5006977;28;20244;-43
2022/08/19 06:37:57;;;;;;;24.13;20.48;;;20.10;85.20;;;22.80;53.69;97290.13;5007698;28;20157;-46
2022/08/19 06:40:27;;;;;;;22.20;18.92;;;20.10;84.90;;;22.75;53.59;97277.28;5007837;28;20050;-45
2022/08/19 06:42:55;;;;;;;23.15;18.88;;;20.10;84.80;;;22.81;53.62;97289.88;5007140;28;20046;-45
2022/08/19 06:45:25;;;;;;;23.38;18.38;;;20.20;84.70;;;22.96;53.32;97299.31;5008377;28;20081;-44
2022/08/19 06:48:07;;;;;;;23.77;20.13;;;20.30;83.90;;;22.86;53.25;97291.84;5005908;28;20057;-44
2022/08/19 06:50:35;;;;;;;25.65;19.90;;;20.30;83.50;;;22.86;53.35;97293.75;5007783;28;20283;-43
2022/08/19 06:53:07;;;;;;;22.58;18.13;;;20.20;83.70;;;22.87;53.39;97296.19;5006814;28;20046;-44
2022/08/19 06:55:34;;;;;;;24.92;19.38;;;20.30;83.50;;;22.94;53.19;97301.47;5007858;28;20057;-45
2022/08/19 06:58:04;;;;;;;21.75;19.45;;;20.30;83.60;;;22.86;53.37;97308.13;5007138;28;20063;-45
2022/08/19 07:00:33;;;;;;;24.95;19.08;;;20.30;83.50;;;22.80;53.71;97306.41;5008372;28;20057;-45
2022/08/19 07:03:02;;;;;;;23.98;19.27;;;20.20;83.30;;;22.97;53.42;97315.38;5004828;28;20050;-44
2022/08/19 07:05:40;;;;;;;22.08;18.17;;;20.30;83.20;;;23.04;53.05;97311.69;5008627;28;20217;-44
2022/08/19 07:08:13;;;;;;;25.35;19.40;;;20.40;82.70;;;22.97;53.09;97304.50;5007388;28;20046;-46
2022/08/19 07:10:46;;;;;;;22.45;18.02;;;20.40;82.60;;;22.81;53.28;97298.00;5008421;28;20042;-44
2022/08/19 07:13:14;;;;;;;26.77;18.60;;;20.40;83.00;;;22.99;53.14;97298.81;5007144;28;20049;-45
2022/08/19 07:15:42;;;;;;;21.83;17.25;;;20.50;82.80;;;23.10;53.10;97306.06;5008434;28;20602;-46
2022/08/19 07:18:10;;;;;;;25.00;18.90;;;20.50;82.60;;;23.16;52.89;97310.47;5007004;28;20327;-45
2022/08/19 07:20:40;;;;;;;21.52;17.90;;;20.50;82.60;;;23.22;52.69;97314.09;5007999;28;20054;-44
2022/08/19 07:23:09;;;;;;;24.65;19.00;;;20.60;82.40;;;23.18;52.76;97311.06;5007117;28;20057;-44
2022/08/19 07:25:44;;;;;;;22.35;17.92;;;20.60;81.80;;;23.27;52.49;97311.47;5007260;28;20038;-42
2022/08/19 07:28:20;;;;;;;20.67;17.20;;;20.60;82.10;;;23.12;52.96;97319.38;5005368;28;20271;-42
2022/08/19 07:30:52;;;;;;;23.63;18.55;;;20.50;82.00;;;23.10;52.75;97316.91;5007089;28;20050;-43
2022/08/19 07:33:22;;;;;;;23.65;17.20;;;20.50;82.40;;;23.15;52.76;97319.72;5003863;28;20424;-43
2022/08/19 07:35:49;;;;;;;20.88;18.42;;;20.40;82.20;;;23.05;53.05;97316.88;5006716;28;20375;-44
2022/08/19 07:38:17;;;;;;;19.95;17.50;;;20.40;82.50;;;23.02;53.33;97317.31;5006014;28;20366;-46
2022/08/19 07:40:45;;;;;;;22.02;18.00;;;20.50;82.70;;;23.01;53.13;97323.81;5006852;28;20072;-45
2022/08/19 07:43:14;;;;;;;21.05;17.77;;;20.50;82.10;;;23.10;53.07;97326.97;5007272;28;20079;-46
2022/08/19 07:45:46;;;;;;;20.85;17.45;;;20.50;82.10;;;23.27;52.71;97316.88;5007544;28;20053;-45
2022/08/19 07:48:14;;;;;;;22.90;17.95;;;20.70;81.60;;;23.22;52.41;97322.25;5006294;28;20049;-45
2022/08/19 07:50:43;;;;;;;21.63;18.98;;;20.70;81.10;;;23.17;52.82;97325.72;4987405;28;20050;-44
2022/08/19 07:53:12;;;;;;;21.67;16.35;;;20.70;81.10;;;23.26;52.61;97317.94;4986427;28;20047;-44
2022/08/19 07:55:40;;;;;;;21.15;16.23;;;20.70;80.50;;;23.31;52.28;97315.31;4987044;28;20058;-43
2022/08/19 07:58:17;;;;;;;20.55;17.40;;;20.70;80.10;;;23.35;52.25;97326.50;4988147;28;20054;-44
2022/08/19 08:00:48;;;;;;;21.92;17.42;;;20.80;80.10;;;23.24;52.37;97324.72;5024356;28;20064;-48
2022/08/19 08:09:10;;;;;;;21.20;17.25;;;20.80;80.40;;;23.33;52.13;97323.22;5013821;28;20046;-45
2022/08/19 08:09:20;;;;;;;21.38;16.92;;;20.80;80.10;;;23.22;52.51;97322.25;5014919;28;20660;-44
2022/08/19 08:12:25;;;;;;;19.17;17.00;;;20.70;80.50;;;23.38;52.19;97329.53;5013643;28;20714;-44
2022/08/19 08:15:07;;;;;;;19.92;16.42;;;20.80;80.20;;;23.51;51.88;97332.94;5016427;28;20054;-44
2022/08/19 08:17:39;;;;;;;20.33;16.45;;;20.80;79.80;;;23.45;51.89;97340.22;5012537;28;20275;-45
2022/08/19 08:20:19;;;;;;;18.55;15.98;;;20.80;80.10;;;23.33;52.40;97336.78;5023125;28;20045;-44
2022/08/19 08:25:36;;;;;;;19.48;16.58;;;20.90;79.90;;;23.47;52.03;97342.69;5027235;28;20348;-48
2022/08/19 08:28:05;;;;;;;19.58;16.10;;;20.90;79.90;;;23.45;52.31;97332.06;5025522;28;20045;-46
2022/08/19 08:30:35;;;;;;;19.15;17.10;;;20.90;79.50;;;23.28;52.49;97348.38;5026621;28;20213;-45
2022/08/19 08:33:04;;;;;;;18.90;15.85;;;20.90;79.50;;;23.49;52.30;97346.78;5025784;28;20378;-44
2022/08/19 08:35:33;;;;;;;19.98;16.98;;;21.00;79.50;;;23.45;52.32;97340.22;5026777;28;20055;-44
2022/08/19 08:38:03;;;;;;;21.00;16.88;;;21.00;79.30;;;23.43;52.51;97345.06;5025331;28;20053;-46
2022/08/19 08:40:58;;;;;;;21.73;17.00;;;21.00;79.60;;;23.58;52.13;97339.03;5026892;28;20079;-46
2022/08/19 08:43:35;;;;;;;17.42;15.00;;;21.10;79.40;;;23.57;51.97;97349.09;5025460;28;20064;-43
2022/08/19 08:46:11;;;;;;;17.50;15.15;;;21.10;79.80;;;23.58;52.36;97339.03;5030307;28;20037;-44
2022/08/19 08:48:48;;;;;;;19.77;16.70;;;21.10;79.20;;;23.56;52.14;97343.88;5028223;28;20041;-44
2022/08/19 08:52:01;;;;;;;18.27;15.85;;;21.20;79.40;;;23.55;52.09;97343.09;5029690;28;20340;-45
2022/08/19 08:54:42;;;;;;;19.15;16.75;;;21.30;78.40;;;23.62;52.19;97344.78;5013650;28;20058;-43
2022/08/19 08:57:34;;;;;;;17.67;15.02;;;21.20;78.50;;;23.73;52.06;97351.97;5029225;28;20052;-44
2022/08/19 09:00:16;;;;;;;18.70;15.02;;;21.40;78.50;;;23.90;51.65;97346.50;5028502;28;20053;-43
2022/08/19 09:02:44;;;;;;;17.63;14.27;;;21.40;78.20;;;23.91;51.82;97332.66;5028472;28;20052;-46
2022/08/19 09:05:22;;;;;;;17.95;15.23;;;21.50;78.20;;;23.82;52.08;97325.22;5029415;28;20057;-50
2022/08/19 09:08:34;;;;;;;19.92;14.35;;;21.50;78.30;;;23.92;51.86;97334.31;5027669;28;20048;-45
2022/08/19 09:11:14;;;;;;;18.00;14.30;;;21.50;78.20;;;23.93;52.01;97344.09;5022866;28;20053;-45
2022/08/19 09:14:04;;;;;;;17.40;15.57;;;21.60;78.20;;;24.01;51.81;97340.09;5027400;28;20072;-45
2022/08/19 09:16:33;;;;;;;16.38;13.98;;;21.60;78.10;;;24.04;51.62;97338.75;5029221;28;20259;-44
2022/08/19 09:19:06;;;;;;;18.08;13.93;;;21.60;77.70;;;24.11;51.64;97347.53;5028747;28;20056;-46
2022/08/19 09:21:34;;;;;;;18.13;12.93;;;21.70;77.60;;;24.23;51.50;97336.53;5028469;28;20049;-45
2022/08/19 09:24:06;;;;;;;21.38;14.13;;;21.80;77.60;;;24.31;51.33;97342.34;5030791;28;20075;-44
2022/08/19 09:26:34;;;;;;;15.23;13.70;;;21.80;77.10;;;24.38;50.94;97348.38;5027395;28;20057;-45
2022/08/19 09:29:20;;;;;;;14.35;12.63;;;21.90;76.90;;;24.31;51.23;97344.22;5029959;28;20041;-45
2022/08/19 09:31:49;;;;;;;16.40;13.48;;;21.90;76.80;;;24.48;50.91;97352.25;5027148;28;20060;-46
2022/08/19 09:34:19;;;;;;;16.10;13.70;;;22.00;76.40;;;24.53;50.68;97350.44;5009396;28;20056;-46
2022/08/19 09:36:52;;;;;;;14.23;12.60;;;22.00;76.20;;;24.44;50.74;97346.50;5016268;28;20348;-45
2022/08/19 09:39:22;;;;;;;15.52;13.38;;;22.00;75.50;;;24.41;50.59;97352.50;5017696;28;20050;-47
2022/08/19 09:41:50;;;;;;;13.65;12.30;;;21.90;75.80;;;24.56;50.51;97349.94;5032443;28;20283;-43
2022/08/19 09:44:21;;;;;;;13.85;12.25;;;22.10;75.80;;;24.69;50.68;97351.41;5016751;28;20049;-44
2022/08/19 09:46:50;;;;;;;14.85;12.93;;;22.20;75.30;;;24.74;50.38;97347.91;5014162;28;20064;-45
2022/08/19 09:49:21;;;;;;;15.05;11.55;;;22.30;75.00;;;24.84;50.14;97358.88;5015495;28;20037;-46
2022/08/19 09:51:54;;;;;;;13.68;12.35;;;22.30;74.70;;;24.88;49.79;97353.75;5019203;28;20048;-48
2022/08/19 09:54:22;;;;;;;14.93;11.13;;;22.40;73.90;;;24.91;49.61;97353.19;5016468;28;20052;-46
2022/08/19 09:56:53;;;;;;;16.08;12.13;;;22.40;73.70;;;24.84;49.48;97356.16;5014627;28;20054;-46
2022/08/19 09:59:22;;;;;;;15.18;12.15;;;22.40;73.20;;;24.78;49.75;97359.91;5018382;28;20062;-46
2022/08/19 10:01:51;;;;;;;17.38;12.20;;;22.30;74.00;;;24.83;49.80;97357.22;5016281;28;20048;-46
2022/08/19 10:04:20;;;;;;;16.52;12.43;;;22.30;74.10;;;24.89;49.37;97358.09;5018874;28;20053;-45
2022/08/19 10:06:51;;;;;;;13.75;10.50;;;22.30;73.50;;;24.63;50.09;97347.00;5021107;28;20046;-45
2022/08/19 10:09:22;;;;;;;15.25;12.20;;;22.20;73.70;;;24.83;49.74;97359.94;5024107;28;20053;-44
2022/08/19 10:12:03;;;;;;;13.15;11.60;;;22.30;74.10;;;24.95;49.54;97363.31;5024016;28;20050;-44
2022/08/19 10:14:33;;;;;;;11.50;10.27;;;22.40;73.90;;;25.03;48.88;97367.47;5024648;28;20049;-45
2022/08/19 10:17:02;;;;;;;12.50;11.30;;;22.40;72.40;;;25.04;48.90;97362.84;5024929;28;20049;-46
2022/08/19 10:19:47;;;;;;;13.77;11.05;;;22.50;72.30;;;25.10;48.86;97351.69;5022592;28;20052;-44
2022/08/19 10:22:23;;;;;;;11.85;10.55;;;22.60;72.10;;;25.23;49.12;97363.28;5024312;28;20049;-49
2022/08/19 10:24:53;;;;;;;12.23;10.93;;;22.80;71.90;;;25.32;48.53;97361.69;5023777;28;20071;-45
2022/08/19 10:27:21;;;;;;;12.85;11.55;;;22.90;70.00;;;25.37;48.12;97352.72;5023866;28;20041;-46
2022/08/19 10:29:49;;;;;;;13.48;10.07;;;22.90;70.30;;;25.48;48.35;97349.78;5023621;28;20054;-45
2022/08/19 10:32:17;;;;;;;12.88;10.80;;;23.00;70.50;;;25.55;47.72;97346.81;5019303;28;20217;-45
2022/08/19 10:35:02;;;;;;;12.23;10.65;;;23.10;69.60;;;25.72;47.72;97352.88;5016607;28;20050;-43
2022/08/19 10:37:32;;;;;;;12.93;10.23;;;23.20;69.50;;;25.83;47.15;97352.94;5013838;28;20046;-44
2022/08/19 10:40:03;;;;;;;11.50;9.65;;;23.30;68.80;;;25.83;46.91;97351.03;5011410;28;20053;-45